createdAt,value
2023-02-27T00:01:15.662Z,100322.67
2023-02-27T00:03:46.785Z,100325.81
2023-02-27T00:06:18.162Z,100324.98
2023-02-27T00:08:47.160Z,100327.71
2023-02-27T00:11:16.257Z,100327.80
2023-02-27T00:13:47.060Z,100332.11
2023-02-27T00:16:19.358Z,100333.29
2023-02-27T00:18:50.259Z,100344.31
2023-02-27T00:21:19.301Z,100354.61
2023-02-27T00:23:48.042Z,100351.63
2023-02-27T00:26:17.027Z,100350.61
2023-02-27T00:28:46.636Z,100347.23
2023-02-27T00:31:15.309Z,100347.83
2023-02-27T00:33:43.970Z,100352.49
2023-02-27T00:36:12.626Z,100365.71
2023-02-27T00:38:43.387Z,100369.33
2023-02-27T00:41:12.039Z,100372.35
2023-02-27T00:43:40.711Z,100372.06
2023-02-27T00:46:10.646Z,100385.64
2023-02-27T00:48:39.216Z,100392.73
2023-02-27T00:51:13.913Z,100396.30
2023-02-27T00:53:43.175Z,100398.20
2023-02-27T00:56:14.465Z,100402.30
2023-02-27T00:58:43.331Z,100403.95
2023-02-27T01:01:11.958Z,100411.11
2023-02-27T01:03:41.110Z,100411.27
2023-02-27T01:06:10.199Z,100413.10
2023-02-27T01:08:38.918Z,100422.03
2023-02-27T01:11:08.935Z,100421.04
2023-02-27T01:13:38.964Z,100430.02
2023-02-27T01:16:08.958Z,100430.13
2023-02-27T01:18:37.537Z,100434.20
2023-02-27T01:21:06.537Z,100437.96
2023-02-27T01:23:36.003Z,100445.17
2023-02-27T01:26:05.173Z,100452.56
2023-02-27T01:28:35.888Z,100452.82
2023-02-27T01:31:04.702Z,100447.06
2023-02-27T01:33:34.628Z,100448.48
2023-02-27T01:36:03.274Z,100450.24
2023-02-27T01:38:32.229Z,100449.91
2023-02-27T01:41:10.822Z,100455.94
2023-02-27T01:44:01.201Z,100448.52
2023-02-27T01:46:32.849Z,100451.48
2023-02-27T01:49:07.657Z,100448.92
2023-02-27T01:51:42.646Z,100443.83
2023-02-27T01:54:11.750Z,100444.27
2023-02-27T01:56:41.476Z,100446.58
2023-02-27T01:59:10.881Z,100453.44
2023-02-27T02:01:39.423Z,100449.58
2023-02-27T02:04:32.992Z,100449.72
2023-02-27T02:07:13.047Z,100443.99
2023-02-27T02:09:47.457Z,100448.61
2023-02-27T02:12:16.662Z,100448.75
2023-02-27T02:14:48.774Z,100451.55
2023-02-27T02:17:54.917Z,100456.78
2023-02-27T02:21:00.115Z,100459.48
2023-02-27T02:23:44.673Z,100466.48
2023-02-27T02:26:33.222Z,100466.30
2023-02-27T02:29:12.795Z,100467.45
2023-02-27T02:31:42.760Z,100468.01
2023-02-27T02:34:51.214Z,100474.05
2023-02-27T02:37:38.043Z,100479.30
2023-02-27T02:40:25.328Z,100479.31
2023-02-27T02:43:14.002Z,100484.59
2023-02-27T02:46:08.578Z,100489.77
2023-02-27T02:48:37.674Z,100498.84
2023-02-27T02:51:24.185Z,100504.98
2023-02-27T02:54:15.021Z,100504.30
2023-02-27T02:56:54.483Z,100511.42
2023-02-27T03:57:07.814Z,100558.21
2023-02-27T03:59:39.391Z,100562.59
2023-02-27T04:02:09.605Z,100560.73
2023-02-27T04:04:39.960Z,100563.43
2023-02-27T04:07:37.098Z,100565.12
2023-02-27T04:10:33.541Z,100574.83
2023-02-27T04:13:16.040Z,100572.64
2023-02-27T04:16:24.581Z,100579.75
2023-02-27T04:19:35.698Z,100579.75
2023-02-27T04:22:19.362Z,100588.22
2023-02-27T04:25:07.703Z,100593.80
2023-02-27T04:27:46.418Z,100595.61
2023-02-27T04:30:25.405Z,100591.45
2023-02-27T04:33:10.122Z,100594.35
2023-02-27T04:35:42.548Z,100598.19
2023-02-27T04:38:21.313Z,100599.27
2023-02-27T04:40:55.965Z,100606.16
2023-02-27T04:43:28.330Z,100609.86
2023-02-27T04:46:03.702Z,100607.93
2023-02-27T04:48:37.680Z,100614.41
2023-02-27T04:51:20.713Z,100616.77
2023-02-27T04:53:52.164Z,100621.55
2023-02-27T04:56:26.815Z,100623.02
2023-02-27T04:59:06.614Z,100628.20
2023-02-27T05:01:40.413Z,100631.23
2023-02-27T05:04:13.419Z,100639.36
2023-02-27T05:06:45.363Z,100643.14
2023-02-27T05:09:28.239Z,100650.61
2023-02-27T05:12:18.082Z,100656.02
2023-02-27T05:14:51.357Z,100663.42
2023-02-27T05:17:25.149Z,100666.66
2023-02-27T05:19:55.859Z,100671.79
2023-02-27T05:22:30.638Z,100674.45
2023-02-27T05:25:34.996Z,100678.65
2023-02-27T05:28:21.770Z,100684.85
2023-02-27T05:30:59.092Z,100686.42
2023-02-27T05:33:46.887Z,100692.51
2023-02-27T05:36:26.074Z,100696.81
2023-02-27T05:39:00.882Z,100697.09
2023-02-27T05:41:34.034Z,100699.80
2023-02-27T05:44:10.839Z,100698.61
2023-02-27T05:46:49.906Z,100700.77
2023-02-27T05:50:01.820Z,100703.83
2023-02-27T05:52:33.234Z,100703.23
2023-02-27T05:55:31.607Z,100704.39
2023-02-27T05:58:17.112Z,100708.33
2023-02-27T06:01:10.167Z,100712.02
2023-02-27T06:03:41.442Z,100714.41
2023-02-27T06:06:15.606Z,100718.30
2023-02-27T06:08:45.695Z,100720.68
2023-02-27T06:11:18.989Z,100726.98
2023-02-27T06:13:52.449Z,100734.23
2023-02-27T06:16:23.397Z,100734.85
2023-02-27T06:18:54.027Z,100734.92
2023-02-27T06:21:24.874Z,100736.38
2023-02-27T06:23:58.063Z,100737.38
2023-02-27T06:26:29.933Z,100742.52
2023-02-27T06:29:01.023Z,100739.26
2023-02-27T06:31:34.257Z,100737.76
2023-02-27T06:34:04.215Z,100736.76
2023-02-27T06:36:35.372Z,100730.46
2023-02-27T06:39:08.258Z,100733.68
2023-02-27T06:41:43.238Z,100734.16
2023-02-27T06:44:14.778Z,100731.81
2023-02-27T06:46:45.438Z,100735.63
2023-02-27T06:49:15.736Z,100734.92
2023-02-27T06:51:45.461Z,100737.61
2023-02-27T06:54:15.378Z,100738.45
2023-02-27T06:56:49.136Z,100739.58
2023-02-27T06:59:19.368Z,100741.58
2023-02-27T07:01:51.109Z,100745.98
2023-02-27T07:04:22.153Z,100751.47
2023-02-27T07:07:33.013Z,100758.84
2023-02-27T07:09:42.927Z,100755.48
2023-02-27T07:12:13.476Z,100754.02
2023-02-27T07:15:00.939Z,100757.22
2023-02-27T07:17:32.225Z,100757.39
2023-02-27T07:20:03.757Z,100762.48
2023-02-27T07:22:35.964Z,100769.27
2023-02-27T07:25:08.139Z,100772.79
2023-02-27T07:27:40.450Z,100773.47
2023-02-27T07:30:11.109Z,100776.87
2023-02-27T07:32:41.841Z,100785.98
2023-02-27T07:35:13.452Z,100789.98
2023-02-27T07:37:44.063Z,100785.55
2023-02-27T07:40:14.154Z,100790.86
2023-02-27T07:42:44.676Z,100790.77
2023-02-27T07:45:15.422Z,100789.66
2023-02-27T07:48:01.083Z,100779.52
2023-02-27T07:50:44.023Z,100780.34
2023-02-27T07:53:29.998Z,100784.81
2023-02-27T07:55:57.900Z,100790.48
2023-02-27T07:58:41.893Z,100788.27
2023-02-27T08:01:45.216Z,100795.02
2023-02-27T08:04:16.346Z,100799.30
2023-02-27T08:06:46.402Z,100794.64
2023-02-27T08:09:16.794Z,100789.42
2023-02-27T08:11:48.929Z,100784.54
2023-02-27T08:14:20.128Z,100796.52
2023-02-27T08:16:56.892Z,100804.96
2023-02-27T08:19:27.503Z,100803.98
2023-02-27T08:21:57.844Z,100812.05
2023-02-27T08:24:29.268Z,100805.59
2023-02-27T08:27:00.226Z,100806.30
2023-02-27T08:29:31.783Z,100810.25
2023-02-27T08:32:05.588Z,100810.08
2023-02-27T08:34:38.158Z,100813.05
2023-02-27T08:37:10.620Z,100816.22
2023-02-27T08:39:42.902Z,100817.27
2023-02-27T08:42:14.209Z,100813.44
2023-02-27T08:44:43.867Z,100812.91
2023-02-27T08:47:14.999Z,100818.52
2023-02-27T08:49:46.281Z,100820.81
2023-02-27T08:52:17.581Z,100823.97
2023-02-27T08:54:49.979Z,100822.55
2023-02-27T08:57:19.723Z,100818.59
2023-02-27T08:59:50.317Z,100823.10
2023-02-27T09:02:20.308Z,100824.67
2023-02-27T09:04:52.034Z,100822.76
2023-02-27T09:07:22.298Z,100826.77
2023-02-27T09:09:52.105Z,100827.48
2023-02-27T09:12:22.662Z,100828.25
2023-02-27T09:14:52.812Z,100825.66
2023-02-27T09:17:22.682Z,100822.26
2023-02-27T09:19:57.301Z,100822.01
2023-02-27T09:22:28.132Z,100829.41
2023-02-27T09:24:59.827Z,100826.93
2023-02-27T09:27:30.962Z,100825.66
2023-02-27T09:30:06.961Z,100818.14
2023-02-27T09:32:37.432Z,100820.55
2023-02-27T09:35:10.443Z,100816.04
2023-02-27T09:37:41.337Z,100815.37
2023-02-27T09:40:31.977Z,100816.35
2023-02-27T09:43:04.039Z,100820.63
2023-02-27T09:45:39.754Z,100821.30
2023-02-27T09:48:33.569Z,100822.27
2023-02-27T09:51:03.570Z,100825.61
2023-02-27T09:53:43.623Z,100829.52
2023-02-27T09:56:39.578Z,100829.36
2023-02-27T10:00:21.469Z,100833.20
2023-02-27T10:03:44.821Z,100832.20
2023-02-27T10:06:27.354Z,100835.30
2023-02-27T10:09:03.097Z,100838.17
2023-02-27T10:11:53.517Z,100839.87
2023-02-27T10:15:17.711Z,100843.77
2023-02-27T10:18:13.004Z,100841.47
2023-02-27T10:21:09.079Z,100844.17
2023-02-27T10:24:08.018Z,100840.63
2023-02-27T10:26:41.905Z,100851.21
2023-02-27T10:29:25.291Z,100851.38
2023-02-27T10:32:30.136Z,100853.94
2023-02-27T10:38:01.361Z,100861.98
2023-02-27T10:40:31.868Z,100861.78
2023-02-27T10:43:06.102Z,100857.61
2023-02-27T10:45:38.797Z,100862.40
2023-02-27T10:48:17.896Z,100864.27
2023-02-27T10:50:52.998Z,100871.58
2023-02-27T10:53:28.086Z,100868.70
2023-02-27T10:56:02.633Z,100865.61
2023-02-27T10:58:34.866Z,100866.64
2023-02-27T11:01:06.858Z,100860.55
2023-02-27T11:03:41.695Z,100857.65
2023-02-27T11:06:30.866Z,100860.30
2023-02-27T11:09:31.672Z,100855.42
2023-02-27T11:12:28.072Z,100854.20
2023-02-27T11:15:04.134Z,100849.16
2023-02-27T11:17:34.953Z,100856.30
2023-02-27T11:20:06.944Z,100855.98
2023-02-27T11:22:36.795Z,100855.16
2023-02-27T11:25:23.325Z,100857.88
2023-02-27T11:27:53.485Z,100864.77
2023-02-27T11:30:32.484Z,100870.23
2023-02-27T11:33:02.315Z,100869.20
2023-02-27T11:35:38.352Z,100866.45
2023-02-27T11:38:30.813Z,100863.58
2023-02-27T11:41:06.436Z,100864.86
2023-02-27T11:43:50.789Z,100864.31
2023-02-27T11:46:47.006Z,100865.63
2023-02-27T11:49:26.618Z,100863.74
2023-02-27T11:52:13.592Z,100864.50
2023-02-27T11:54:44.238Z,100861.86
2023-02-27T11:57:29.178Z,100862.08
2023-02-27T12:00:08.486Z,100863.55
2023-02-27T12:03:09.511Z,100868.41
2023-02-27T12:05:44.360Z,100866.96
2023-02-27T12:08:19.570Z,100866.73
2023-02-27T12:11:12.420Z,100869.73
2023-02-27T12:13:48.886Z,100872.39
2023-02-27T12:16:52.483Z,100873.47
2023-02-27T12:19:34.379Z,100874.02
2023-02-27T12:22:23.850Z,100873.54
2023-02-27T12:25:08.890Z,100876.71
2023-02-27T12:27:56.483Z,100876.52
2023-02-27T12:30:28.054Z,100875.73
2023-02-27T12:33:14.124Z,100877.09
2023-02-27T12:35:46.199Z,100880.23
2023-02-27T12:38:15.975Z,100881.62
2023-02-27T12:41:07.847Z,100886.09
2023-02-27T12:44:15.697Z,100883.25
2023-02-27T12:46:47.125Z,100880.63
2023-02-27T12:49:45.198Z,100890.86
2023-02-27T12:52:43.803Z,100895.98
2023-02-27T12:55:28.630Z,100896.33
2023-02-27T12:58:15.310Z,100902.63
2023-02-27T13:00:55.463Z,100905.56
2023-02-27T13:03:51.759Z,100905.56
2023-02-27T13:06:40.610Z,100907.02
2023-02-27T13:09:31.956Z,100908.88
2023-02-27T13:12:12.253Z,100905.08
2023-02-27T13:15:01.631Z,100908.67
2023-02-27T13:17:49.610Z,100908.00
2023-02-27T13:20:29.146Z,100907.11
2023-02-27T13:23:21.732Z,100912.13
2023-02-27T13:25:52.272Z,100911.36
2023-02-27T13:28:28.364Z,100912.15
2023-02-27T13:31:15.494Z,100910.55
2023-02-27T13:34:09.025Z,100911.02
2023-02-27T13:36:41.606Z,100909.16
2023-02-27T13:39:44.708Z,100905.02
2023-02-27T13:42:28.218Z,100904.51
2023-02-27T13:45:05.710Z,100913.21
2023-02-27T13:47:40.539Z,100909.88
2023-02-27T13:50:19.899Z,100912.73
2023-02-27T13:52:51.468Z,100913.10
2023-02-27T13:55:37.841Z,100914.07
2023-02-27T13:58:08.924Z,100916.31
2023-02-27T14:00:38.858Z,100919.88
2023-02-27T14:03:18.117Z,100919.25
2023-02-27T14:05:49.842Z,100918.49
2023-02-27T14:08:48.192Z,100926.19
2023-02-27T14:11:27.716Z,100926.64
2023-02-27T14:13:59.842Z,100926.59
2023-02-27T14:16:42.195Z,100928.99
2023-02-27T14:19:32.457Z,100927.70
2023-02-27T14:22:04.667Z,100935.02
2023-02-27T14:25:01.174Z,100929.69
2023-02-27T14:28:03.259Z,100937.37
2023-02-27T14:30:42.790Z,100937.61
2023-02-27T14:33:16.759Z,100938.14
2023-02-27T14:35:51.036Z,100937.52
2023-02-27T14:38:21.509Z,100936.36
2023-02-27T14:41:09.415Z,100936.98
2023-02-27T14:43:45.931Z,100933.33
2023-02-27T14:46:24.701Z,100932.94
2023-02-27T14:49:03.612Z,100934.89
2023-02-27T14:51:37.674Z,100938.41
2023-02-27T14:54:15.150Z,100941.34
2023-02-27T14:57:00.212Z,100943.31
2023-02-27T14:59:35.516Z,100946.80
2023-02-27T15:02:05.569Z,100951.48
2023-02-27T15:04:35.687Z,100958.15
2023-02-27T15:07:06.234Z,100965.86
2023-02-27T15:09:53.301Z,100968.42
2023-02-27T15:12:26.294Z,100970.29
2023-02-27T15:15:01.361Z,100971.93
2023-02-27T15:17:41.073Z,100976.33
2023-02-27T15:20:32.373Z,100978.57
2023-02-27T15:23:25.279Z,100980.95
2023-02-27T15:25:59.410Z,100982.73
2023-02-27T15:28:39.374Z,100987.88
2023-02-27T15:31:11.383Z,100993.36
2023-02-27T15:33:44.552Z,100995.30
2023-02-27T15:36:25.084Z,100996.95
2023-02-27T15:39:20.758Z,101001.61
2023-02-27T15:41:55.383Z,101003.78
2023-02-27T15:45:01.358Z,101011.15
2023-02-27T15:47:35.633Z,101017.48
2023-02-27T15:50:12.323Z,101024.83
2023-02-27T15:53:07.233Z,101028.71
2023-02-27T15:55:44.074Z,101029.55
2023-02-27T15:58:38.774Z,101038.90
2023-02-27T16:01:11.213Z,101039.95
2023-02-27T16:03:46.390Z,101044.23
2023-02-27T16:06:30.504Z,101049.64
2023-02-27T16:09:09.348Z,101053.41
2023-02-27T16:11:40.225Z,101057.25
2023-02-27T16:14:45.424Z,101062.66
2023-02-27T16:17:32.841Z,101067.91
2023-02-27T16:23:35.909Z,101077.63
2023-02-27T16:26:24.812Z,101081.83
2023-02-27T16:28:56.611Z,101080.89
2023-02-27T16:31:39.185Z,101082.61
2023-02-27T16:34:20.718Z,101088.55
2023-02-27T16:36:55.852Z,101087.92
2023-02-27T16:39:27.138Z,101094.34
2023-02-27T16:41:59.379Z,101099.09
2023-02-27T16:44:30.969Z,101102.02
2023-02-27T16:47:05.312Z,101103.48
2023-02-27T16:49:41.487Z,101106.15
2023-02-27T16:52:14.795Z,101105.76
2023-02-27T16:54:45.390Z,101108.14
2023-02-27T16:57:15.711Z,101113.33
2023-02-27T16:59:45.924Z,101115.08
2023-02-27T17:02:17.826Z,101117.17
2023-02-27T17:04:50.774Z,101115.02
2023-02-27T17:07:21.715Z,101120.23
2023-02-27T17:09:52.114Z,101119.63
2023-02-27T17:12:23.529Z,101123.59
2023-02-27T17:14:54.578Z,101123.92
2023-02-27T17:17:25.670Z,101123.91
2023-02-27T17:19:55.842Z,101135.47
2023-02-27T17:22:39.044Z,101137.22
2023-02-27T17:25:11.137Z,101141.91
2023-02-27T17:27:44.737Z,101143.48
2023-02-27T17:30:29.535Z,101147.44
2023-02-27T17:33:01.104Z,101149.41
2023-02-27T17:35:34.218Z,101152.59
2023-02-27T17:38:07.551Z,101154.79
2023-02-27T17:40:39.965Z,101155.27
2023-02-27T17:43:10.369Z,101158.64
2023-02-27T17:45:39.984Z,101166.80
2023-02-27T17:48:14.426Z,101168.49
2023-02-27T17:50:45.961Z,101168.55
2023-02-27T17:53:16.356Z,101177.85
2023-02-27T17:55:46.256Z,101176.98
2023-02-27T17:58:19.981Z,101179.61
2023-02-27T18:00:49.778Z,101185.02
2023-02-27T18:03:20.294Z,101190.61
2023-02-27T18:05:53.791Z,101198.77
2023-02-27T18:08:27.179Z,101198.66
2023-02-27T18:10:56.942Z,101202.20
2023-02-27T18:13:28.415Z,101204.18
2023-02-27T18:16:00.512Z,101210.19
2023-02-27T18:18:37.053Z,101214.42
2023-02-27T18:21:21.395Z,101221.41
2023-02-27T18:23:52.526Z,101224.75
2023-02-27T18:26:30.595Z,101230.16
2023-02-27T18:29:04.771Z,101233.67
2023-02-27T18:31:38.523Z,101236.27
2023-02-27T18:34:09.210Z,101239.98
2023-02-27T18:36:39.773Z,101244.60
2023-02-27T18:39:10.117Z,101244.11
2023-02-27T18:41:44.162Z,101243.97
2023-02-27T18:44:14.222Z,101250.41
2023-02-27T18:46:45.766Z,101255.95
2023-02-27T18:49:20.521Z,101260.20
2023-02-27T18:51:50.361Z,101263.23
2023-02-27T18:54:28.531Z,101262.91
2023-02-27T18:57:07.165Z,101263.88
2023-02-27T18:59:48.097Z,101268.51
2023-02-27T19:02:20.258Z,101270.33
2023-02-27T19:04:59.085Z,101272.58
2023-02-27T19:07:36.001Z,101276.33
2023-02-27T19:10:11.309Z,101278.02
2023-02-27T19:12:41.345Z,101285.38
2023-02-27T19:15:24.145Z,101288.25
2023-02-27T19:17:57.775Z,101288.40
2023-02-27T19:20:27.602Z,101293.14
2023-02-27T19:23:13.440Z,101297.05
2023-02-27T19:25:49.628Z,101299.02
2023-02-27T19:28:19.046Z,101299.51
2023-02-27T19:30:48.756Z,101297.31
2023-02-27T19:33:18.520Z,101299.56
2023-02-27T19:35:48.433Z,101295.31
2023-02-27T19:38:19.522Z,101294.25
2023-02-27T19:40:51.898Z,101295.59
2023-02-27T19:43:21.645Z,101292.41
2023-02-27T19:45:58.802Z,101290.80
2023-02-27T19:48:43.967Z,101289.98
2023-02-27T19:51:14.409Z,101295.00
2023-02-27T19:53:46.944Z,101296.61
2023-02-27T19:56:24.539Z,101301.99
2023-02-27T19:58:55.374Z,101303.56
2023-02-27T20:01:27.031Z,101310.01
2023-02-27T20:04:08.649Z,101315.75
2023-02-27T20:06:42.522Z,101318.45
2023-02-27T20:09:14.940Z,101321.10
2023-02-27T20:11:53.215Z,101328.45
2023-02-27T20:14:26.076Z,101330.90
2023-02-27T20:16:55.627Z,101335.21
2023-02-27T20:19:26.863Z,101335.07
2023-02-27T20:21:58.594Z,101333.51
2023-02-27T20:24:27.912Z,101329.56
2023-02-27T20:26:59.787Z,101328.59
2023-02-27T20:29:29.286Z,101332.59
2023-02-27T20:32:01.095Z,101332.30
2023-02-27T20:34:31.728Z,101334.31
2023-02-27T20:37:05.085Z,101336.55
2023-02-27T20:39:35.586Z,101339.91
2023-02-27T20:42:08.992Z,101343.92
2023-02-27T20:44:41.263Z,101342.40
2023-02-27T20:47:15.513Z,101349.38
2023-02-27T20:49:49.316Z,101355.25
2023-02-27T20:52:20.003Z,101360.19
2023-02-27T20:54:52.508Z,101362.63
2023-02-27T20:57:23.439Z,101367.46
2023-02-27T20:59:52.652Z,101364.97
2023-02-27T21:02:25.900Z,101364.84
2023-02-27T21:04:55.107Z,101367.37
2023-02-27T21:07:33.645Z,101367.96
2023-02-27T21:10:06.063Z,101366.82
2023-02-27T21:12:48.223Z,101365.84
2023-02-27T21:15:29.298Z,101367.45
2023-02-27T21:18:04.943Z,101367.70
2023-02-27T21:20:36.403Z,101369.38
2023-02-27T21:23:06.182Z,101374.67
2023-02-27T21:25:45.320Z,101377.19
2023-02-27T21:28:20.814Z,101377.30
2023-02-27T21:30:55.199Z,101379.17
2023-02-27T21:33:25.375Z,101379.63
2023-02-27T21:35:54.330Z,101382.14
2023-02-27T21:38:23.631Z,101385.02
2023-02-27T21:40:54.943Z,101382.59
2023-02-27T21:43:25.688Z,101387.72
2023-02-27T21:46:05.049Z,101388.38
2023-02-27T21:48:35.433Z,101388.31
2023-02-27T21:51:06.058Z,101388.50
2023-02-27T21:53:37.748Z,101389.10
2023-02-27T21:56:09.251Z,101388.23
2023-02-27T21:58:40.734Z,101388.39
2023-02-27T22:01:17.226Z,101385.27
2023-02-27T22:03:51.781Z,101384.33
2023-02-27T22:06:22.554Z,101384.58
2023-02-27T22:08:56.893Z,101383.48
2023-02-27T22:11:28.232Z,101382.66
2023-02-27T22:13:57.760Z,101384.31
2023-02-27T22:16:28.785Z,101384.40
2023-02-27T22:26:48.289Z,101396.25
2023-02-27T22:29:20.571Z,101398.00
2023-02-27T22:31:50.141Z,101401.75
2023-02-27T22:34:21.202Z,101399.55
2023-02-27T22:36:53.008Z,101401.23
2023-02-27T22:39:29.267Z,101398.08
2023-02-27T22:41:58.668Z,101394.98
2023-02-27T22:44:30.187Z,101395.80
2023-02-27T22:47:01.150Z,101397.39
2023-02-27T22:49:30.323Z,101390.90
2023-02-27T22:52:05.235Z,101387.11
2023-02-27T22:54:34.695Z,101389.52
2023-02-27T22:57:06.758Z,101392.50
2023-02-27T22:59:39.266Z,101394.35
2023-02-27T23:02:08.953Z,101393.08
2023-02-27T23:04:38.532Z,101398.23
2023-02-27T23:07:08.216Z,101398.40
2023-02-27T23:09:37.540Z,101399.02
2023-02-27T23:12:07.710Z,101400.70
2023-02-27T23:14:41.713Z,101399.62
2023-02-27T23:17:10.637Z,101399.95
2023-02-27T23:19:41.276Z,101399.47
2023-02-27T23:22:11.419Z,101398.45
2023-02-27T23:24:42.333Z,101394.73
2023-02-27T23:27:25.349Z,101395.83
2023-02-27T23:29:56.118Z,101392.73
2023-02-27T23:32:28.638Z,101399.36
2023-02-27T23:35:01.714Z,101397.28
2023-02-27T23:37:32.455Z,101401.46
2023-02-27T23:40:01.803Z,101401.91
2023-02-27T23:42:50.975Z,101410.01
2023-02-27T23:45:24.393Z,101409.73
2023-02-27T23:47:56.308Z,101409.30
2023-02-27T23:50:28.739Z,101407.21
2023-02-27T23:53:01.319Z,101406.02
2023-02-27T23:55:33.076Z,101405.77
2023-02-27T23:58:09.817Z,101402.02
